Isle of Colonsay, United Kingdom
Current Conditions -  °F | °C
As of 1:20 AM on Tuesday 23 Dec 2014 (Local Time) from EGPI Reporting Station
Light Rain Light Rain  
Wind Chill: 41°   Ceiling: Unl
Heat Index: 48°   Visibility: 6mi
Dew Point: 43°   Wind: 23mph
Humidity: 82%   Direction: 260°W
Pressure: 29.65"   Gusts: NA
Location:  56.07°N, 6.18°W
Report Text: EGPI 230120Z AUTO 26020KT 9999 -RADZ FEW039/// 09/06 Q1004
Loading
Personal Weather Stations






























Interactive Weather Map New forecast layout! Learn more

10-Day Weather Forecast

Advertisements
Track Severe Weather on mobile